Time;durP1;ratioP1;P1;durP2;ratioP2;P2;SDS_P1;SDS_P2;PMS_P1;PMS_P2;Temp;Humidity;BMP_temperature;BMP_pressure;BME280_temperature;BME280_humidity;BME280_pressure;Samples;Min_cycle;Max_cycle;Signal;HPM_P1;HPM_P2
2020/12/10 00:01:47;;;;;;;10.93;5.05;;;3.80;1.00;;;;;;5092399;28;20166;-76
2020/12/10 00:04:15;;;;;;;14.20;6.40;;;3.80;1.00;;;;;;5095924;28;20679;-75
2020/12/10 00:07:01;;;;;;;11.90;6.25;;;3.80;1.00;;;;;;5089472;28;20170;-76
2020/12/10 00:09:27;;;;;;;14.40;6.65;;;3.80;1.00;;;;;;5075589;28;20197;-74
2020/12/10 00:11:52;;;;;;;12.20;5.37;;;3.80;1.00;;;;;;5082714;28;20166;-74
2020/12/10 00:14:18;;;;;;;11.87;5.57;;;3.80;1.00;;;;;;5093580;28;20163;-73
2020/12/10 00:16:49;;;;;;;15.83;7.10;;;3.80;1.00;;;;;;5093365;28;20636;-73
2020/12/10 00:19:19;;;;;;;15.10;6.05;;;3.70;1.00;;;;;;5095742;28;20163;-74
2020/12/10 00:21:45;;;;;;;13.38;5.45;;;3.70;1.00;;;;;;5085821;28;20194;-74
2020/12/10 00:24:14;;;;;;;15.13;5.60;;;3.70;1.00;;;;;;5075607;28;20191;-77
2020/12/10 00:26:50;;;;;;;10.13;5.65;;;3.70;1.00;;;;;;5076180;28;20441;-76
2020/12/10 00:29:16;;;;;;;13.38;6.07;;;3.70;1.00;;;;;;5075111;28;20232;-76
2020/12/10 00:31:49;;;;;;;13.83;6.07;;;3.70;1.00;;;;;;5081733;28;20617;-75
2020/12/10 00:34:37;;;;;;;11.43;6.03;;;3.70;1.00;;;;;;5095477;28;20393;-75
2020/12/10 00:37:43;;;;;;;11.30;5.22;;;3.70;1.00;;;;;;5086271;28;20190;-76
2020/12/10 00:40:43;;;;;;;10.60;5.68;;;3.60;1.00;;;;;;5076980;28;20170;-75
2020/12/10 00:43:13;;;;;;;12.65;5.05;;;3.60;1.00;;;;;;5092938;28;20183;-76
2020/12/10 00:46:00;;;;;;;9.93;4.95;;;3.60;1.00;;;;;;5093860;28;20683;-75
2020/12/10 00:48:37;;;;;;;11.68;5.47;;;3.60;1.00;;;;;;5075058;28;20179;-75
2020/12/10 00:51:31;;;;;;;13.48;5.85;;;3.50;1.00;;;;;;5074597;28;20167;-76
2020/12/10 00:53:57;;;;;;;12.15;5.55;;;3.50;1.00;;;;;;5074409;28;20166;-74
2020/12/10 00:56:32;;;;;;;11.00;5.37;;;3.50;1.00;;;;;;5074901;28;20159;-73
2020/12/10 00:59:01;;;;;;;12.68;5.55;;;3.50;1.00;;;;;;5074420;28;20183;-74
2020/12/10 01:01:27;;;;;;;12.32;5.57;;;3.50;1.00;;;;;;5076501;28;20195;-74
2020/12/10 01:03:53;;;;;;;15.97;6.00;;;3.40;1.00;;;;;;5074149;28;20202;-73
2020/12/10 01:06:19;;;;;;;17.60;6.60;;;3.50;1.00;;;;;;5077384;28;20558;-74
2020/12/10 01:08:45;;;;;;;12.65;5.47;;;3.50;1.00;;;;;;5095270;28;20159;-73
2020/12/10 01:11:31;;;;;;;13.30;6.80;;;3.50;1.00;;;;;;5092162;28;20162;-74
2020/12/10 01:14:14;;;;;;;11.60;5.65;;;3.40;1.00;;;;;;5074391;28;20937;-73
2020/12/10 01:16:40;;;;;;;10.07;5.60;;;;;;;;;;5087514;28;20509;-73
2020/12/10 01:19:14;;;;;;;15.88;6.40;;;3.50;1.00;;;;;;5074134;28;20174;-74
2020/12/10 01:21:50;;;;;;;13.20;6.13;;;3.50;1.00;;;;;;5074157;28;20187;-74
2020/12/10 01:24:16;;;;;;;12.60;5.70;;;;;;;;;;5074561;28;20542;-74
2020/12/10 01:26:43;;;;;;;11.30;6.43;;;3.50;1.00;;;;;;5083879;28;20532;-74
2020/12/10 01:29:14;;;;;;;13.13;6.30;;;3.50;1.00;;;;;;5077184;28;20549;-73
2020/12/10 01:31:39;;;;;;;13.02;5.90;;;3.50;1.00;;;;;;5079410;28;20216;-74
2020/12/10 01:34:05;;;;;;;11.87;6.10;;;3.50;1.00;;;;;;5094401;28;20167;-74
2020/12/10 01:36:38;;;;;;;9.87;5.40;;;3.50;1.00;;;;;;5094254;28;20170;-74
2020/12/10 01:39:31;;;;;;;11.25;5.45;;;3.40;1.00;;;;;;5094628;28;20163;-75
2020/12/10 01:42:07;;;;;;;8.75;5.03;;;3.50;1.00;;;;;;5087090;28;20174;-75
2020/12/10 01:45:19;;;;;;;8.23;3.92;;;3.40;1.00;;;;;;5083461;28;20545;-75
2020/12/10 01:47:45;;;;;;;11.77;5.60;;;3.40;1.00;;;;;;5089280;28;20219;-75
2020/12/10 01:50:10;;;;;;;13.00;5.37;;;3.40;1.00;;;;;;5094006;28;20245;-76
2020/12/10 01:52:37;;;;;;;10.13;5.93;;;3.40;1.00;;;;;;5077590;28;20206;-76
2020/12/10 01:55:13;;;;;;;9.52;5.47;;;3.30;1.00;;;;;;5078110;28;20510;-76
2020/12/10 01:57:39;;;;;;;8.93;4.25;;;3.30;1.00;;;;;;5073605;28;20174;-76
2020/12/10 02:00:05;;;;;;;12.00;6.33;;;3.30;1.00;;;;;;5073771;28;20182;-76
2020/12/10 02:02:37;;;;;;;15.37;6.20;;;3.30;1.00;;;;;;5081328;28;20190;-76
2020/12/10 02:08:32;;;;;;;9.70;5.25;;;3.30;1.00;;;;;;5073865;28;20261;-75
2020/12/10 02:11:19;;;;;;;14.80;5.40;;;3.30;1.00;;;;;;5082468;28;20249;-76
2020/12/10 02:13:45;;;;;;;9.13;4.90;;;3.30;1.00;;;;;;5073767;28;20156;-75
2020/12/10 02:16:19;;;;;;;9.07;4.53;;;3.20;1.00;;;;;;5075885;28;20628;-76
2020/12/10 02:18:54;;;;;;;12.88;5.68;;;3.30;1.00;;;;;;5074212;28;20181;-76
2020/12/10 02:21:25;;;;;;;10.65;5.30;;;3.30;1.00;;;;;;5076625;28;20170;-76
2020/12/10 02:24:19;;;;;;;13.98;6.35;;;;;;;;;;5073479;28;20163;-75
2020/12/10 02:26:56;;;;;;;12.82;5.47;;;3.30;1.00;;;;;;5075694;28;20272;-74
2020/12/10 02:29:22;;;;;;;12.55;5.30;;;3.30;1.00;;;;;;5074327;28;20170;-74
2020/12/10 02:31:48;;;;;;;13.50;5.47;;;3.30;1.00;;;;;;5073549;28;20171;-74
2020/12/10 02:34:14;;;;;;;8.70;4.60;;;3.30;1.00;;;;;;5074348;28;20163;-73
2020/12/10 02:36:44;;;;;;;10.20;4.82;;;3.30;1.00;;;;;;5074172;28;20425;-74
2020/12/10 02:39:10;;;;;;;11.68;5.20;;;;;;;;;;5073294;28;20163;-74
2020/12/10 02:41:49;;;;;;;11.75;5.15;;;3.30;1.00;;;;;;5080159;28;20252;-76
2020/12/10 02:44:49;;;;;;;8.93;4.38;;;3.30;1.00;;;;;;5084443;28;20255;-76
2020/12/10 02:47:25;;;;;;;7.15;4.53;;;3.30;1.00;;;;;;5073187;28;20672;-76
2020/12/10 02:50:08;;;;;;;12.13;4.78;;;3.30;1.00;;;;;;5073054;28;20547;-76
2020/12/10 02:52:37;;;;;;;10.80;4.90;;;3.30;1.00;;;;;;5073353;28;20174;-75
2020/12/10 02:55:03;;;;;;;7.85;5.00;;;3.30;1.00;;;;;;5073709;28;20178;-74
2020/12/10 02:57:29;;;;;;;12.23;5.40;;;3.20;1.00;;;;;;5092140;28;20178;-74
2020/12/10 02:59:55;;;;;;;12.40;5.03;;;3.20;1.00;;;;;;5072974;28;20159;-74
2020/12/10 03:02:25;;;;;;;11.23;5.30;;;3.30;1.00;;;;;;5073016;28;20183;-74
2020/12/10 03:05:03;;;;;;;9.02;4.45;;;3.20;1.00;;;;;;5072880;28;20187;-74
2020/12/10 03:07:37;;;;;;;10.18;4.75;;;3.30;1.00;;;;;;5073153;28;20554;-74
2020/12/10 03:10:07;;;;;;;11.02;5.40;;;3.30;1.00;;;;;;5073409;28;20241;-76
2020/12/10 03:12:43;;;;;;;13.60;5.38;;;3.30;1.00;;;;;;5079652;28;20606;-76
2020/12/10 03:15:09;;;;;;;11.38;5.60;;;3.30;1.00;;;;;;5074556;28;20159;-76
2020/12/10 03:17:49;;;;;;;11.27;5.60;;;3.30;1.00;;;;;;5095540;28;20177;-76
2020/12/10 03:20:17;;;;;;;13.07;5.65;;;3.20;1.00;;;;;;5077381;28;20216;-76
2020/12/10 03:22:43;;;;;;;11.27;5.53;;;3.20;1.00;;;;;;5076357;28;20171;-76
2020/12/10 03:25:08;;;;;;;11.37;5.00;;;3.20;1.00;;;;;;5087517;28;20597;-74
2020/12/10 03:27:34;;;;;;;11.90;5.30;;;3.30;1.00;;;;;;5090189;28;20459;-74
2020/12/10 03:30:00;;;;;;;10.07;5.10;;;3.30;1.00;;;;;;5077295;28;20189;-74
2020/12/10 03:32:26;;;;;;;10.40;5.10;;;3.30;1.00;;;;;;5076469;28;20523;-74
2020/12/10 03:34:53;;;;;;;12.60;4.90;;;3.30;1.00;;;;;;5076330;28;20166;-74
2020/12/10 03:37:18;;;;;;;10.60;4.90;;;3.30;1.00;;;;;;5086924;28;20420;-74
2020/12/10 03:39:44;;;;;;;10.53;5.70;;;3.30;1.00;;;;;;5094609;28;20196;-74
2020/12/10 03:42:13;;;;;;;12.30;4.27;;;3.30;1.00;;;;;;5084559;28;20171;-76
2020/12/10 03:44:49;;;;;;;11.77;5.07;;;3.30;1.00;;;;;;5076350;28;20622;-76
2020/12/10 03:47:49;;;;;;;10.15;4.97;;;3.30;1.00;;;;;;5083716;28;20536;-76
2020/12/10 03:50:49;;;;;;;15.32;5.80;;;3.30;1.00;;;;;;5094725;28;20162;-76
2020/12/10 03:53:15;;;;;;;11.25;4.93;;;3.30;1.00;;;;;;5085467;28;20645;-76
2020/12/10 03:55:41;;;;;;;12.90;6.00;;;3.30;1.00;;;;;;5076555;28;20167;-74
2020/12/10 03:58:06;;;;;;;11.23;4.90;;;3.30;1.00;;;;;;5074692;28;20208;-74
2020/12/10 04:00:38;;;;;;;13.07;5.50;;;3.30;1.00;;;;;;5075751;28;20167;-74
2020/12/10 04:03:03;;;;;;;9.15;4.65;;;3.30;1.00;;;;;;5089322;28;20186;-73
2020/12/10 04:05:29;;;;;;;12.17;5.27;;;3.30;1.00;;;;;;5095972;28;20240;-74
2020/12/10 04:07:54;;;;;;;8.73;4.77;;;3.30;1.00;;;;;;5093510;28;20602;-74
2020/12/10 04:10:26;;;;;;;12.03;5.97;;;3.20;1.00;;;;;;5076269;28;20236;-74
2020/12/10 04:12:51;;;;;;;13.52;5.80;;;3.20;1.00;;;;;;5074790;28;20559;-74
2020/12/10 04:15:19;;;;;;;9.77;5.00;;;3.20;1.00;;;;;;5091188;28;20189;-74
2020/12/10 04:17:50;;;;;;;15.30;5.88;;;3.20;1.00;;;;;;5094783;28;20610;-74
2020/12/10 04:20:25;;;;;;;10.95;5.45;;;3.20;1.00;;;;;;5078632;28;20573;-74
2020/12/10 04:22:55;;;;;;;12.88;5.63;;;3.20;1.00;;;;;;5076161;28;20171;-74
2020/12/10 04:25:24;;;;;;;12.73;5.63;;;3.30;1.00;;;;;;5075638;28;20206;-74
2020/12/10 04:28:08;;;;;;;15.00;6.03;;;3.30;1.00;;;;;;5087577;28;20663;-74
2020/12/10 04:30:37;;;;;;;11.68;5.47;;;3.30;1.00;;;;;;5086501;28;20198;-74
2020/12/10 04:33:03;;;;;;;11.73;5.22;;;3.30;1.00;;;;;;5093402;28;20494;-74
2020/12/10 04:35:29;;;;;;;13.20;5.90;;;3.20;1.00;;;;;;5093418;28;20186;-74
2020/12/10 04:37:54;;;;;;;12.17;5.90;;;3.20;1.00;;;;;;5075085;28;20711;-74
2020/12/10 04:40:20;;;;;;;12.67;5.37;;;3.20;1.00;;;;;;5086996;28;20249;-74
2020/12/10 04:42:50;;;;;;;9.20;4.60;;;3.30;1.00;;;;;;5080166;28;20606;-74
2020/12/10 04:45:15;;;;;;;20.55;5.32;;;3.30;1.00;;;;;;5077232;28;20191;-73
2020/12/10 04:47:41;;;;;;;9.63;4.50;;;3.30;1.00;;;;;;5080364;28;20262;-74
2020/12/10 04:50:17;;;;;;;9.77;6.10;;;3.30;1.00;;;;;;5075896;28;20175;-74
2020/12/10 04:52:43;;;;;;;10.02;4.40;;;3.20;1.00;;;;;;5083385;28;20561;-73
2020/12/10 04:55:20;;;;;;;15.88;6.40;;;3.30;1.00;;;;;;5074898;28;20179;-74
2020/12/10 04:57:46;;;;;;;12.35;5.38;;;3.20;1.00;;;;;;5084963;28;20170;-74
2020/12/10 05:00:15;;;;;;;10.00;4.70;;;3.20;1.00;;;;;;5086240;28;20179;-73
2020/12/10 05:02:45;;;;;;;8.18;4.93;;;3.30;1.00;;;;;;5087002;28;20258;-74
2020/12/10 05:05:25;;;;;;;10.45;5.65;;;3.20;1.00;;;;;;5074656;28;20194;-74
2020/12/10 05:08:08;;;;;;;9.98;4.57;;;3.20;1.00;;;;;;5090339;28;20230;-74
2020/12/10 05:10:43;;;;;;;14.80;6.00;;;;;;;;;;5081264;28;20238;-74
2020/12/10 05:13:11;;;;;;;11.95;5.07;;;3.20;1.00;;;;;;5077073;28;20321;-74
2020/12/10 05:15:38;;;;;;;10.05;4.85;;;3.20;1.00;;;;;;5079879;28;20194;-74
2020/12/10 05:18:14;;;;;;;8.35;4.68;;;3.20;1.00;;;;;;5078655;28;20165;-74
2020/12/10 05:20:51;;;;;;;13.27;5.03;;;3.20;1.00;;;;;;5087611;28;20181;-74
2020/12/10 05:23:32;;;;;;;15.07;6.10;;;3.20;1.00;;;;;;5094441;28;20645;-74
2020/12/10 05:26:02;;;;;;;10.35;4.97;;;3.10;1.00;;;;;;5084346;28;20210;-74
2020/12/10 05:28:49;;;;;;;9.27;4.40;;;3.10;1.00;;;;;;5074179;28;20151;-75
2020/12/10 05:31:49;;;;;;;9.48;4.15;;;3.10;1.00;;;;;;5084823;28;20211;-75
2020/12/10 05:34:25;;;;;;;10.40;4.60;;;3.20;1.00;;;;;;5094704;28;20150;-76
2020/12/10 05:37:39;;;;;;;11.05;4.75;;;3.10;1.00;;;;;;5082155;28;20636;-75
2020/12/10 05:40:31;;;;;;;6.75;3.85;;;3.10;1.00;;;;;;5010851;28;20259;-76
2020/12/10 05:42:57;;;;;;;10.32;4.28;;;3.10;1.00;;;;;;5000072;28;20173;-73
2020/12/10 05:45:23;;;;;;;10.40;5.53;;;3.10;1.00;;;;;;4992053;28;20225;-74
2020/12/10 05:47:54;;;;;;;10.23;4.88;;;3.10;1.00;;;;;;4992411;28;20665;-74
2020/12/10 05:50:38;;;;;;;10.23;4.70;;;3.10;1.00;;;;;;5001448;28;20716;-73
2020/12/10 05:53:12;;;;;;;10.02;4.80;;;3.00;1.00;;;;;;5001196;28;20204;-74
2020/12/10 05:55:40;;;;;;;8.07;5.03;;;3.00;1.00;;;;;;4992361;28;20173;-74
2020/12/10 05:58:06;;;;;;;9.50;4.75;;;3.10;1.00;;;;;;5001673;28;20205;-75
2020/12/10 06:00:49;;;;;;;12.63;5.95;;;3.10;1.00;;;;;;5011874;28;20181;-76
2020/12/10 06:03:15;;;;;;;11.80;5.20;;;3.10;1.00;;;;;;5011963;28;20181;-76
2020/12/10 06:05:44;;;;;;;16.73;5.67;;;3.10;1.00;;;;;;5005816;28;20672;-75
2020/12/10 06:08:20;;;;;;;8.00;4.45;;;3.00;1.00;;;;;;4995699;28;20425;-76
2020/12/10 06:11:07;;;;;;;11.00;5.35;;;3.10;1.00;;;;;;4992727;28;20232;-78
2020/12/10 06:14:01;;;;;;;11.73;5.00;;;3.20;1.00;;;;;;4993581;28;20216;-78
2020/12/10 06:17:04;;;;;;;9.02;4.65;;;3.10;1.00;;;;;;5042187;28;20182;-78
2020/12/10 06:19:38;;;;;;;9.02;3.90;;;3.00;1.00;;;;;;5074998;28;20517;-78
2020/12/10 06:25:50;;;;;;;10.52;4.93;;;3.10;1.00;;;;;;5085216;28;20324;-77
2020/12/10 06:28:21;;;;;;;6.05;4.13;;;3.10;1.00;;;;;;5093674;28;20167;-79
2020/12/10 06:31:19;;;;;;;10.77;4.68;;;3.10;1.00;;;;;;5076113;28;20175;-80
2020/12/10 06:33:50;;;;;;;8.48;4.05;;;3.10;1.00;;;;;;5080303;28;20162;-79
2020/12/10 06:37:09;;;;;;;7.95;4.60;;;3.10;1.00;;;;;;5087909;28;20222;-79
2020/12/10 06:39:56;;;;;;;9.82;4.60;;;3.10;1.00;;;;;;5093550;28;20178;-80
2020/12/10 06:42:21;;;;;;;8.27;4.60;;;3.10;1.00;;;;;;5092612;28;20216;-76
2020/12/10 06:44:56;;;;;;;9.67;5.13;;;3.10;1.00;;;;;;5085759;28;20205;-76
2020/12/10 06:47:49;;;;;;;11.70;5.88;;;3.10;1.00;;;;;;5088017;28;20881;-77
2020/12/10 07:00:54;;;;;;;7.68;4.80;;;3.00;1.00;;;;;;5088653;28;20213;-77
2020/12/10 07:10:08;;;;;;;8.27;3.92;;;3.10;1.00;;;;;;4937341;29;20219;-79
2020/12/10 07:13:19;;;;;;;11.07;4.70;;;3.20;1.00;;;;;;4920759;29;20731;-77
2020/12/10 07:15:56;;;;;;;7.88;4.75;;;3.20;1.00;;;;;;4937746;29;20191;-76
2020/12/10 07:19:07;;;;;;;7.18;3.75;;;3.20;1.00;;;;;;4937276;29;20171;-78
2020/12/10 07:22:08;;;;;;;9.60;5.00;;;3.10;1.00;;;;;;4924919;29;20195;-76
2020/12/10 07:24:34;;;;;;;9.25;5.10;;;3.20;1.00;;;;;;4925751;29;20226;-75
2020/12/10 07:27:00;;;;;;;9.60;4.18;;;3.20;1.00;;;;;;4936107;29;20198;-76
2020/12/10 07:29:25;;;;;;;12.10;5.43;;;3.20;1.00;;;;;;4933380;29;20548;-74
2020/12/10 07:31:56;;;;;;;7.40;4.90;;;3.20;1.00;;;;;;4917949;29;20429;-74
2020/12/10 07:34:21;;;;;;;14.50;5.50;;;3.20;1.00;;;;;;4916590;29;20184;-74
2020/12/10 07:36:50;;;;;;;10.43;4.90;;;3.20;1.00;;;;;;4923362;29;20509;-74
2020/12/10 07:39:29;;;;;;;10.60;4.70;;;3.20;1.00;;;;;;4993919;28;20189;-74
2020/12/10 07:41:56;;;;;;;8.82;4.60;;;3.20;1.00;;;;;;5096522;28;20538;-74
2020/12/10 07:44:30;;;;;;;10.13;4.55;;;3.20;1.00;;;;;;5096411;28;20162;-74
2020/12/10 07:46:56;;;;;;;7.10;3.80;;;3.20;1.00;;;;;;5095288;28;20223;-74
2020/12/10 07:49:32;;;;;;;10.75;4.03;;;3.20;1.00;;;;;;5096394;28;20150;-74
2020/12/10 07:52:07;;;;;;;7.90;4.28;;;3.20;1.00;;;;;;5091652;28;20178;-73
2020/12/10 07:54:50;;;;;;;11.23;4.70;;;3.20;1.00;;;;;;5086055;28;20175;-73
2020/12/10 07:57:32;;;;;;;10.70;5.00;;;3.30;1.00;;;;;;5079816;28;20703;-74
2020/12/10 08:00:09;;;;;;;11.43;5.32;;;3.30;1.00;;;;;;5076198;28;20198;-76
2020/12/10 08:03:22;;;;;;;6.72;4.88;;;3.30;1.00;;;;;;5076191;28;20179;-75
2020/12/10 08:06:05;;;;;;;8.82;4.75;;;3.30;1.00;;;;;;4994499;28;20224;-75
2020/12/10 08:08:49;;;;;;;8.18;4.55;;;3.30;1.00;;;;;;4994870;28;20689;-75
2020/12/10 08:14:37;;;;;;;10.43;5.25;;;3.40;1.00;;;;;;5009437;28;20187;-74
2020/12/10 08:17:04;;;;;;;13.60;6.03;;;3.40;1.00;;;;;;5011016;28;20212;-74
2020/12/10 08:19:31;;;;;;;14.23;6.53;;;3.50;1.00;;;;;;5004026;28;20212;-74
2020/12/10 08:21:57;;;;;;;9.88;4.85;;;3.50;1.00;;;;;;4994218;28;20245;-73
2020/12/10 08:24:45;;;;;;;11.40;5.90;;;3.50;1.00;;;;;;4993562;28;20237;-74
2020/12/10 08:27:16;;;;;;;11.68;6.13;;;3.60;1.00;;;;;;5010475;28;20189;-74
2020/12/10 08:30:11;;;;;;;11.93;5.60;;;3.60;1.00;;;;;;5006377;28;20185;-75
2020/12/10 08:32:52;;;;;;;13.55;6.10;;;3.60;1.00;;;;;;4994411;28;20190;-75
2020/12/10 08:35:41;;;;;;;10.13;4.40;;;3.60;1.00;;;;;;4993964;28;20595;-75
2020/12/10 08:38:15;;;;;;;11.18;5.20;;;3.70;1.00;;;;;;4994332;28;20549;-75
2020/12/10 08:41:05;;;;;;;11.77;5.55;;;3.60;1.00;;;;;;4977631;28;20598;-75
2020/12/10 08:43:31;;;;;;;16.00;6.82;;;3.60;1.00;;;;;;5075404;28;20171;-74
2020/12/10 08:46:13;;;;;;;12.17;5.13;;;3.70;1.00;;;;;;5074849;28;20213;-74
2020/12/10 08:48:39;;;;;;;11.82;5.57;;;3.70;1.00;;;;;;5082850;28;20202;-74
2020/12/10 08:51:05;;;;;;;13.87;6.07;;;;;;;;;;5075080;28;20221;-74
2020/12/10 08:53:32;;;;;;;13.23;5.82;;;3.80;1.00;;;;;;5085799;28;20735;-74
2020/12/10 08:55:58;;;;;;;16.05;5.95;;;3.80;1.00;;;;;;5089770;28;20653;-74
2020/12/10 08:58:27;;;;;;;12.55;5.68;;;3.80;1.00;;;;;;5075055;28;20175;-74
2020/12/10 09:00:54;;;;;;;18.45;6.43;;;3.90;1.00;;;;;;5074233;28;20198;-74
2020/12/10 09:03:26;;;;;;;11.52;5.82;;;3.90;1.00;;;;;;5091097;28;20269;-74
2020/12/10 09:05:56;;;;;;;13.98;5.55;;;3.90;1.00;;;;;;5107431;28;20696;-73
2020/12/10 09:08:26;;;;;;;15.00;5.82;;;3.90;1.00;;;;;;5089156;28;20170;-74
2020/12/10 09:10:56;;;;;;;14.27;5.90;;;3.90;1.00;;;;;;5081785;28;20713;-74
2020/12/10 09:13:26;;;;;;;13.98;5.63;;;3.90;1.00;;;;;;5074600;28;20660;-75
2020/12/10 09:16:19;;;;;;;13.70;5.60;;;3.90;1.00;;;;;;5074079;28;20549;-75
2020/12/10 09:18:50;;;;;;;27.52;6.70;;;3.90;1.00;;;;;;5088900;28;20178;-76
2020/12/10 09:24:44;;;;;;;14.48;6.50;;;4.00;1.00;;;;;;5081398;28;20644;-76
2020/12/10 09:27:10;;;;;;;12.05;5.85;;;4.00;1.00;;;;;;5080120;28;20265;-80
2020/12/10 09:29:37;;;;;;;13.60;6.57;;;4.00;1.00;;;;;;5077426;28;20278;-74
2020/12/10 09:32:03;;;;;;;17.80;7.35;;;4.00;1.00;;;;;;5083807;28;20438;-74
2020/12/10 09:34:30;;;;;;;16.35;7.35;;;4.00;1.00;;;;;;5091968;28;20526;-74
2020/12/10 09:36:58;;;;;;;16.55;7.30;;;4.10;1.00;;;;;;5093229;28;20178;-74
2020/12/10 09:39:26;;;;;;;14.30;6.82;;;4.10;1.00;;;;;;5077138;28;20170;-75
2020/12/10 09:41:52;;;;;;;17.90;7.63;;;4.20;1.00;;;;;;5081536;28;20174;-73
2020/12/10 09:44:20;;;;;;;13.60;6.90;;;4.20;1.00;;;;;;5097741;28;20174;-73
2020/12/10 09:46:45;;;;;;;15.30;6.97;;;4.20;1.00;;;;;;5101570;28;20914;-73
2020/12/10 09:49:14;;;;;;;14.77;6.70;;;4.20;1.00;;;;;;5093707;28;20178;-73
2020/12/10 09:51:51;;;;;;;16.48;7.43;;;4.30;1.00;;;;;;5094158;28;20208;-74
2020/12/10 09:59:28;;;;;;;13.35;6.75;;;4.50;1.00;;;;;;5094722;28;20154;-75
2020/12/10 10:01:56;;;;;;;14.02;6.43;;;4.60;1.00;;;;;;5089695;28;20190;-75
2020/12/10 10:04:26;;;;;;;16.08;6.90;;;4.60;1.00;;;;;;5082804;28;20181;-77
2020/12/10 10:06:56;;;;;;;17.05;7.35;;;4.60;1.00;;;;;;5073833;28;20617;-76
2020/12/10 10:09:24;;;;;;;20.90;8.02;;;4.40;1.00;;;;;;5073833;28;20156;-76
2020/12/10 10:12:04;;;;;;;15.80;6.38;;;4.40;1.00;;;;;;5073989;28;20159;-76
2020/12/10 10:14:31;;;;;;;18.05;7.38;;;4.50;1.00;;;;;;5077841;28;20161;-74
2020/12/10 10:16:56;;;;;;;14.40;6.55;;;4.50;1.00;;;;;;5079307;28;20548;-74
2020/12/10 10:19:26;;;;;;;18.27;7.80;;;4.50;1.00;;;;;;5079152;28;20179;-73
2020/12/10 10:21:56;;;;;;;16.13;7.30;;;4.60;1.00;;;;;;5079985;28;20190;-74
2020/12/10 10:24:22;;;;;;;14.23;6.20;;;4.60;1.00;;;;;;5084438;28;20240;-73
2020/12/10 10:26:50;;;;;;;13.90;5.70;;;4.70;1.00;;;;;;5095147;28;20185;-74
2020/12/10 10:29:21;;;;;;;13.80;6.28;;;4.60;1.00;;;;;;5086397;28;20931;-77
2020/12/10 10:31:51;;;;;;;13.15;6.38;;;4.50;1.00;;;;;;5086368;28;20170;-76
2020/12/10 10:34:18;;;;;;;13.68;6.00;;;4.60;1.00;;;;;;5080706;28;20185;-76
2020/12/10 10:36:44;;;;;;;20.20;7.82;;;4.60;1.00;;;;;;5077150;28;20626;-76
2020/12/10 10:39:10;;;;;;;17.53;5.90;;;4.60;1.00;;;;;;5076917;28;20167;-76
2020/12/10 10:41:40;;;;;;;17.08;6.60;;;4.60;1.00;;;;;;5084044;28;20502;-76
2020/12/10 10:44:06;;;;;;;25.88;7.05;;;4.70;1.00;;;;;;5097359;28;20153;-76
2020/12/10 10:46:32;;;;;;;14.00;6.13;;;4.70;1.00;;;;;;5091562;28;20348;-76
2020/12/10 10:48:58;;;;;;;17.83;5.83;;;4.80;1.00;;;;;;5076313;28;20183;-76
2020/12/10 10:51:24;;;;;;;15.20;6.30;;;4.80;1.00;;;;;;5078987;28;20479;-77
2020/12/10 10:53:49;;;;;;;10.60;5.18;;;4.90;1.00;;;;;;5086798;28;20166;-76
2020/12/10 10:56:19;;;;;;;14.93;5.10;;;4.90;1.00;;;;;;5110074;28;20501;-76
2020/12/10 10:58:45;;;;;;;14.23;6.88;;;5.00;1.00;;;;;;5103732;28;20663;-76
2020/12/10 11:01:11;;;;;;;11.40;5.40;;;5.10;1.00;;;;;;5096800;28;20201;-74
2020/12/10 11:03:36;;;;;;;11.87;5.37;;;5.10;1.00;;;;;;5080750;28;20221;-74
2020/12/10 11:06:02;;;;;;;13.40;4.90;;;5.10;1.00;;;;;;5078230;28;20282;-74
2020/12/10 11:08:27;;;;;;;12.97;5.27;;;5.10;1.00;;;;;;5084927;28;20637;-74
2020/12/10 11:10:53;;;;;;;16.40;6.43;;;5.10;1.00;;;;;;5076135;28;20170;-74
2020/12/10 11:13:18;;;;;;;13.13;6.00;;;5.10;1.00;;;;;;5086319;28;20266;-74
2020/12/10 11:15:44;;;;;;;10.50;5.30;;;5.80;1.00;;;;;;5076402;28;20167;-76
2020/12/10 11:18:10;;;;;;;9.43;4.70;;;5.30;1.00;;;;;;5079812;28;20209;-76
2020/12/10 11:20:36;;;;;;;9.45;4.97;;;5.20;1.00;;;;;;5077239;28;20206;-76
2020/12/10 11:23:01;;;;;;;13.67;6.40;;;5.30;1.00;;;;;;5075458;28;20189;-76
2020/12/10 11:25:27;;;;;;;6.37;4.00;;;5.30;1.00;;;;;;5075926;28;20554;-76
2020/12/10 11:27:53;;;;;;;10.20;4.90;;;5.20;1.00;;;;;;5075808;28;20155;-76
2020/12/10 11:30:18;;;;;;;10.70;5.27;;;5.30;1.00;;;;;;5091989;28;20163;-74
2020/12/10 11:32:44;;;;;;;10.63;4.90;;;5.30;1.00;;;;;;5083913;28;20175;-74
2020/12/10 11:35:10;;;;;;;11.17;4.93;;;;;;;;;;5095244;28;20348;-74
2020/12/10 11:37:36;;;;;;;11.43;5.20;;;5.10;1.00;;;;;;5086469;28;20182;-74
2020/12/10 11:40:02;;;;;;;10.00;5.07;;;;;;;;;;5095696;28;20175;-73
2020/12/10 11:42:27;;;;;;;8.65;4.38;;;5.10;1.00;;;;;;5089771;28;20537;-74
2020/12/10 11:44:53;;;;;;;7.47;4.00;;;4.90;1.00;;;;;;5074411;28;20199;-74
2020/12/10 11:47:19;;;;;;;10.97;5.13;;;4.90;1.00;;;;;;5075381;28;20156;-74
2020/12/10 11:49:45;;;;;;;8.93;4.90;;;4.80;1.00;;;;;;5075424;28;20916;-74
2020/12/10 11:52:10;;;;;;;5.43;3.80;;;4.90;1.00;;;;;;5078799;28;20505;-74
2020/12/10 11:54:36;;;;;;;10.60;4.73;;;4.80;1.00;;;;;;5083943;28;20213;-74
2020/12/10 11:57:01;;;;;;;9.77;4.93;;;4.70;1.00;;;;;;5092904;28;20223;-74
2020/12/10 11:59:27;;;;;;;8.27;5.03;;;4.80;1.00;;;;;;5091947;28;20186;-74
2020/12/10 12:01:52;;;;;;;10.73;4.50;;;4.90;1.00;;;;;;5079368;28;20191;-76
2020/12/10 12:04:18;;;;;;;5.60;3.63;;;4.80;1.00;;;;;;5074975;28;20183;-76
2020/12/10 12:06:45;;;;;;;6.20;4.03;;;4.80;1.00;;;;;;5075067;28;20159;-75
2020/12/10 12:09:11;;;;;;;7.80;4.30;;;4.80;1.00;;;;;;5075093;28;20637;-76
2020/12/10 12:11:37;;;;;;;9.65;4.85;;;4.80;1.00;;;;;;5082396;28;20639;-75
2020/12/10 12:14:02;;;;;;;9.27;4.60;;;4.80;1.00;;;;;;5095031;28;20194;-76
2020/12/10 12:16:28;;;;;;;7.70;4.20;;;4.80;1.00;;;;;;5095426;28;20530;-73
2020/12/10 12:18:54;;;;;;;6.40;4.10;;;4.80;1.00;;;;;;5094137;28;20555;-73
2020/12/10 12:21:24;;;;;;;9.13;5.00;;;4.80;1.00;;;;;;5083823;28;20178;-74
2020/12/10 12:23:51;;;;;;;7.47;4.07;;;4.80;1.00;;;;;;5094923;28;20189;-74
2020/12/10 12:26:18;;;;;;;9.57;4.85;;;4.90;1.00;;;;;;5084063;28;20203;-74
2020/12/10 12:28:46;;;;;;;8.70;5.40;;;4.90;1.00;;;;;;5077028;28;20177;-74
2020/12/10 12:31:12;;;;;;;9.45;4.55;;;5.00;1.00;;;;;;5078714;28;20229;-75
2020/12/10 12:33:37;;;;;;;10.60;4.88;;;5.00;1.00;;;;;;5092712;28;20178;-75
2020/12/10 12:36:07;;;;;;;10.50;5.37;;;5.00;1.00;;;;;;5108210;28;20185;-76
2020/12/10 12:38:33;;;;;;;11.75;5.00;;;5.00;1.00;;;;;;5094383;28;20200;-77
2020/12/10 12:40:59;;;;;;;10.13;4.53;;;5.10;1.00;;;;;;5085899;28;20167;-76
2020/12/10 12:43:25;;;;;;;10.10;5.30;;;5.10;1.00;;;;;;5087327;28;20435;-76
2020/12/10 12:45:50;;;;;;;9.40;5.17;;;4.80;1.00;;;;;;5077989;28;20642;-75
2020/12/10 12:48:16;;;;;;;9.30;5.00;;;4.80;1.00;;;;;;5077555;28;20178;-75
2020/12/10 12:50:42;;;;;;;9.77;5.03;;;7.70;1.00;;;;;;5087348;28;20202;-74
2020/12/10 12:53:07;;;;;;;9.20;5.57;;;4.90;1.00;;;;;;5101809;28;20227;-75
2020/12/10 12:55:36;;;;;;;13.00;5.60;;;4.80;1.00;;;;;;5087279;28;20170;-75
2020/12/10 12:58:02;;;;;;;10.88;5.70;;;4.90;1.00;;;;;;5094226;28;20188;-75
2020/12/10 13:00:28;;;;;;;10.90;5.10;;;4.90;1.00;;;;;;5091024;28;20262;-75
2020/12/10 13:02:54;;;;;;;9.07;5.37;;;4.90;1.00;;;;;;5081949;28;20708;-75
2020/12/10 13:05:19;;;;;;;8.57;5.60;;;4.80;1.00;;;;;;5082315;28;20210;-75
2020/12/10 13:07:50;;;;;;;11.67;5.63;;;4.80;1.00;;;;;;5092066;28;20656;-75
2020/12/10 13:10:15;;;;;;;10.13;5.07;;;4.80;1.00;;;;;;5091625;28;20197;-75
2020/12/10 13:12:41;;;;;;;10.43;4.93;;;4.80;1.00;;;;;;5073490;28;20170;-75
2020/12/10 13:15:07;;;;;;;9.07;4.63;;;4.80;1.00;;;;;;5074077;28;20587;-75
2020/12/10 13:17:33;;;;;;;10.20;5.13;;;4.80;1.00;;;;;;5073861;28;20155;-75
2020/12/10 13:19:59;;;;;;;9.38;4.85;;;4.80;1.00;;;;;;5084140;28;20235;-75
2020/12/10 13:22:25;;;;;;;14.43;5.70;;;4.80;1.00;;;;;;5093914;28;20158;-75
2020/12/10 13:24:50;;;;;;;9.40;4.60;;;4.70;1.00;;;;;;5084332;28;20500;-75
2020/12/10 13:27:16;;;;;;;14.30;5.50;;;4.70;1.00;;;;;;5080521;28;20569;-75
2020/12/10 13:29:41;;;;;;;14.27;5.33;;;4.80;1.00;;;;;;5076094;28;20178;-75
2020/12/10 13:32:07;;;;;;;10.10;5.10;;;4.70;1.00;;;;;;5077133;28;20183;-75
2020/12/10 13:34:33;;;;;;;12.40;5.60;;;4.70;1.00;;;;;;5091081;28;20206;-75
2020/12/10 13:36:59;;;;;;;9.60;5.20;;;4.70;1.00;;;;;;5088935;28;20261;-74
2020/12/10 13:39:24;;;;;;;10.15;4.65;;;4.70;1.00;;;;;;5107400;28;20265;-74
2020/12/10 13:41:50;;;;;;;11.13;5.57;;;4.70;1.00;;;;;;5079541;28;20167;-74
2020/12/10 13:44:16;;;;;;;9.93;5.17;;;4.70;1.00;;;;;;5074722;28;20183;-74
2020/12/10 13:46:41;;;;;;;7.30;4.27;;;4.70;1.00;;;;;;5073057;28;20195;-74
2020/12/10 13:49:07;;;;;;;14.50;5.37;;;4.70;1.00;;;;;;5072980;28;20425;-74
2020/12/10 13:51:33;;;;;;;7.23;4.30;;;4.70;1.00;;;;;;5073047;28;20187;-74
2020/12/10 13:53:59;;;;;;;6.47;3.80;;;4.70;1.00;;;;;;5074018;28;20194;-74
2020/12/10 13:56:24;;;;;;;7.47;4.60;;;4.60;1.00;;;;;;5073060;28;20152;-74
2020/12/10 13:58:50;;;;;;;8.53;4.40;;;4.60;1.00;;;;;;5081724;28;20424;-74
2020/12/10 14:01:17;;;;;;;7.78;4.35;;;4.50;1.00;;;;;;5093140;28;20190;-73
2020/12/10 14:03:44;;;;;;;9.55;4.95;;;4.40;1.00;;;;;;5089340;28;20186;-73